Time;durP1;ratioP1;P1;durP2;ratioP2;P2;SDS_P1;SDS_P2;PMS_P1;PMS_P2;Temp;Humidity;BMP_temperature;BMP_pressure;BME280_temperature;BME280_humidity;BME280_pressure;Samples;Min_cycle;Max_cycle;Signal;HPM_P1;HPM_P2
2021/07/31 00:01:08;;;;;;;1.08;0.98;;;;;;;;;;5058703;28;20410;-81
2021/07/31 00:03:35;;;;;;;0.90;0.90;;;;;;;;;;5051973;28;20197;-80
2021/07/31 00:06:01;;;;;;;0.60;0.60;;;;;;;;;;5074679;28;20443;-79
2021/07/31 00:08:28;;;;;;;0.70;0.70;;;;;;;;;;5077292;28;20188;-79
2021/07/31 00:10:54;;;;;;;0.60;0.50;;;;;;;;;;5078868;28;20451;-81
2021/07/31 00:13:20;;;;;;;0.60;0.60;;;;;;;;;;5062367;28;20421;-80
2021/07/31 00:15:46;;;;;;;0.70;0.70;;;;;;;;;;5078597;28;20405;-79
2021/07/31 00:18:12;;;;;;;0.60;0.60;;;;;;;;;;5067015;28;20966;-81
2021/07/31 00:20:38;;;;;;;0.60;0.50;;;;;;;;;;5061986;28;20419;-80
2021/07/31 00:23:04;;;;;;;0.70;0.60;;;;;;;;;;5078330;28;20442;-80
2021/07/31 00:25:30;;;;;;;0.60;0.60;;;;;;;;;;5056142;28;20509;-81
2021/07/31 00:27:56;;;;;;;0.70;0.60;;;;;;;;;;5077004;28;20442;-80
2021/07/31 00:30:26;;;;;;;0.80;0.80;;;;;;;;;;5058504;28;20827;-80
2021/07/31 00:32:52;;;;;;;0.70;0.70;;;;;;;;;;5059420;28;20559;-80
2021/07/31 00:35:19;;;;;;;0.70;0.50;;;;;;;;;;5075850;28;20393;-79
2021/07/31 00:37:45;;;;;;;0.60;0.60;;;;;;;;;;5055113;28;20208;-80
2021/07/31 00:40:11;;;;;;;0.70;0.60;;;;;;;;;;5062662;28;20422;-80
2021/07/31 00:42:37;;;;;;;0.80;0.60;;;;;;;;;;5060936;28;20471;-81
2021/07/31 00:45:03;;;;;;;0.70;0.60;;;;;;;;;;5072873;28;20434;-80
2021/07/31 00:47:30;;;;;;;0.67;0.60;;;;;;;;;;5071990;28;20188;-80
2021/07/31 00:49:56;;;;;;;0.60;0.60;;;;;;;;;;5081649;28;20406;-80
2021/07/31 00:52:22;;;;;;;0.70;0.60;;;;;;;;;;5081655;28;20419;-80
2021/07/31 00:54:48;;;;;;;0.80;0.60;;;;;;;;;;5052451;28;20436;-80
2021/07/31 00:57:15;;;;;;;0.70;0.50;;;;;;;;;;5051494;28;20480;-80
2021/07/31 00:59:41;;;;;;;0.80;0.80;;;;;;;;;;5067198;28;20246;-79
2021/07/31 01:02:07;;;;;;;0.70;0.60;;;;;;;;;;5054430;28;20516;-79
2021/07/31 01:04:32;;;;;;;0.67;0.57;;;;;;;;;;5049394;28;20306;-80
2021/07/31 01:06:58;;;;;;;0.60;0.52;;;;;;;;;;5075442;28;20420;-79
2021/07/31 01:09:24;;;;;;;0.60;0.60;;;;;;;;;;5056561;28;20572;-78
2021/07/31 01:11:50;;;;;;;1.23;0.67;;;;;;;;;;5055651;28;20437;-80
2021/07/31 01:14:16;;;;;;;0.70;0.60;;;;;;;;;;5071448;28;20398;-79
2021/07/31 01:16:42;;;;;;;0.80;0.70;;;;;;;;;;5050399;28;20462;-80
2021/07/31 01:19:08;;;;;;;0.70;0.60;;;;;;;;;;5050526;28;20422;-79
2021/07/31 01:21:34;;;;;;;0.60;0.60;;;;;;;;;;5058841;28;20181;-80
2021/07/31 01:24:00;;;;;;;1.10;0.70;;;;;;;;;;5070905;28;20520;-80
2021/07/31 01:26:27;;;;;;;0.70;0.60;;;;;;;;;;5048436;28;20439;-79
2021/07/31 01:28:53;;;;;;;1.03;0.93;;;;;;;;;;5053270;28;20226;-80
2021/07/31 01:31:19;;;;;;;1.40;0.80;;;;;;;;;;5058779;28;20773;-79
2021/07/31 01:33:45;;;;;;;0.70;0.60;;;;;;;;;;5051580;28;20177;-79
2021/07/31 01:36:10;;;;;;;0.70;0.50;;;;;;;;;;5075359;28;20417;-80
2021/07/31 01:38:37;;;;;;;0.70;0.60;;;;;;;;;;5057248;28;20457;-77
2021/07/31 01:41:03;;;;;;;0.70;0.60;;;;;;;;;;5057288;28;20430;-80
2021/07/31 01:43:29;;;;;;;0.70;0.60;;;;;;;;;;5069306;28;20185;-79
2021/07/31 01:45:55;;;;;;;0.80;0.60;;;;;;;;;;5057771;28;20469;-80
2021/07/31 01:48:21;;;;;;;0.70;0.60;;;;;;;;;;5058893;28;20431;-79
2021/07/31 01:50:47;;;;;;;0.60;0.60;;;;;;;;;;5061848;28;20405;-80
2021/07/31 01:53:13;;;;;;;0.60;0.50;;;;;;;;;;5071989;28;20404;-79
2021/07/31 01:55:39;;;;;;;1.33;1.23;;;;;;;;;;5058214;28;20801;-79
2021/07/31 01:58:04;;;;;;;1.07;0.70;;;;;;;;;;5056334;28;20423;-78
2021/07/31 02:00:30;;;;;;;0.80;0.70;;;;;;;;;;5065348;28;20414;-79
2021/07/31 02:02:56;;;;;;;0.77;0.77;;;;;;;;;;5050589;28;20711;-80
2021/07/31 02:05:22;;;;;;;0.60;0.50;;;;;;;;;;5052764;28;20476;-78
2021/07/31 02:07:48;;;;;;;0.60;0.60;;;;;;;;;;5054233;28;20413;-80
2021/07/31 02:10:14;;;;;;;2.23;1.00;;;;;;;;;;5068279;28;20896;-78
2021/07/31 02:12:40;;;;;;;0.70;0.60;;;;;;;;;;5049783;28;20403;-79
2021/07/31 02:15:06;;;;;;;0.70;0.60;;;;;;;;;;5075365;28;20434;-78
2021/07/31 02:17:32;;;;;;;0.70;0.60;;;;;;;;;;5060620;28;20441;-79
2021/07/31 02:19:58;;;;;;;0.60;0.50;;;;;;;;;;5070971;28;20442;-78
2021/07/31 02:22:24;;;;;;;0.67;0.57;;;;;;;;;;5057270;28;20970;-78
2021/07/31 02:24:50;;;;;;;0.60;0.60;;;;;;;;;;5041348;28;20453;-79
2021/07/31 02:27:16;;;;;;;0.60;0.60;;;;;;;;;;5067406;28;20426;-78
2021/07/31 02:29:42;;;;;;;0.60;0.60;;;;;;;;;;5054139;28;20468;-79
2021/07/31 02:32:08;;;;;;;4.00;0.80;;;;;;;;;;5048123;28;20457;-79
2021/07/31 02:34:34;;;;;;;0.60;0.60;;;;;;;;;;5048109;28;20431;-78
2021/07/31 02:37:00;;;;;;;0.60;0.60;;;;;;;;;;5073590;28;20916;-79
2021/07/31 02:39:26;;;;;;;0.70;0.60;;;;;;;;;;5063180;28;20464;-78
2021/07/31 02:41:52;;;;;;;1.00;0.97;;;;;;;;;;5048570;28;20434;-78
2021/07/31 02:44:18;;;;;;;0.60;0.57;;;;;;;;;;5063018;28;20462;-78
2021/07/31 02:46:44;;;;;;;0.80;0.80;;;;;;;;;;5048246;28;20493;-79
2021/07/31 02:49:11;;;;;;;0.60;0.53;;;;;;;;;;5049281;28;20514;-78
2021/07/31 02:51:36;;;;;;;1.33;0.80;;;;;;;;;;5047908;28;20438;-79
2021/07/31 02:54:02;;;;;;;1.00;0.90;;;;;;;;;;5050245;28;20390;-79
2021/07/31 02:56:28;;;;;;;1.13;1.03;;;;;;;;;;5050494;28;20835;-78
2021/07/31 02:58:54;;;;;;;0.70;0.67;;;;;;;;;;5046375;28;20549;-78
2021/07/31 03:01:20;;;;;;;0.70;0.70;;;;;;;;;;5048948;28;20431;-79
2021/07/31 03:03:46;;;;;;;0.70;0.70;;;;;;;;;;5068815;28;20927;-78
2021/07/31 03:06:12;;;;;;;0.70;0.70;;;;;;;;;;5070997;28;20443;-80
2021/07/31 03:08:38;;;;;;;0.60;0.50;;;;;;;;;;5071560;28;20413;-80
2021/07/31 03:11:06;;;;;;;0.80;0.70;;;;;;;;;;5058376;28;20437;-79
2021/07/31 03:13:32;;;;;;;0.60;0.60;;;;;;;;;;5058484;28;20181;-79
2021/07/31 03:15:58;;;;;;;0.70;0.50;;;;;;;;;;5060286;28;20439;-80
2021/07/31 03:18:25;;;;;;;0.60;0.50;;;;;;;;;;5070688;28;20440;-81
2021/07/31 03:20:52;;;;;;;0.70;0.60;;;;;;;;;;5050369;28;20423;-80
2021/07/31 03:23:19;;;;;;;0.70;0.60;;;;;;;;;;5055729;28;20446;-80
2021/07/31 03:25:45;;;;;;;0.60;0.60;;;;;;;;;;5060993;28;20504;-78
2021/07/31 03:28:12;;;;;;;0.60;0.50;;;;;;;;;;5070579;28;20487;-80
2021/07/31 03:30:45;;;;;;;0.60;0.60;;;;;;;;;;5057031;28;20923;-80
2021/07/31 03:33:11;;;;;;;0.70;0.60;;;;;;;;;;5053512;28;20395;-80
2021/07/31 03:35:38;;;;;;;0.70;0.60;;;;;;;;;;5044272;28;20496;-79
2021/07/31 03:38:04;;;;;;;0.60;0.50;;;;;;;;;;5059890;28;20487;-79
2021/07/31 03:40:30;;;;;;;0.60;0.60;;;;;;;;;;5076148;28;20489;-80
2021/07/31 03:42:56;;;;;;;0.87;0.60;;;;;;;;;;5060052;28;20495;-80
2021/07/31 03:45:22;;;;;;;3.23;0.70;;;;;;;;;;5064550;28;20441;-80
2021/07/31 03:47:48;;;;;;;0.60;0.60;;;;;;;;;;5064894;28;20428;-80
2021/07/31 03:50:14;;;;;;;0.60;0.60;;;;;;;;;;5061530;28;20766;-79
2021/07/31 03:52:40;;;;;;;0.87;0.80;;;;;;;;;;5084014;28;20407;-79
2021/07/31 03:55:07;;;;;;;0.60;0.60;;;;;;;;;;5058697;28;20416;-79
2021/07/31 03:57:33;;;;;;;0.70;0.70;;;;;;;;;;5064916;28;20420;-79
2021/07/31 03:59:59;;;;;;;0.70;0.70;;;;;;;;;;5055530;28;20438;-80
2021/07/31 04:02:25;;;;;;;0.60;0.60;;;;;;;;;;5078415;28;20416;-79
2021/07/31 04:04:51;;;;;;;0.60;0.50;;;;;;;;;;5060941;28;20477;-79
2021/07/31 04:07:17;;;;;;;3.70;0.80;;;;;;;;;;5061468;28;20437;-79
2021/07/31 04:09:44;;;;;;;0.67;0.60;;;;;;;;;;5059943;28;20786;-80
2021/07/31 04:12:10;;;;;;;0.70;0.60;;;;;;;;;;5062585;28;20484;-80
2021/07/31 04:14:35;;;;;;;0.97;0.80;;;;;;;;;;5079065;28;20423;-81
2021/07/31 04:17:02;;;;;;;0.80;0.70;;;;;;;;;;5050117;28;20390;-79
2021/07/31 04:19:28;;;;;;;0.60;0.60;;;;;;;;;;5051334;28;20444;-79
2021/07/31 04:21:56;;;;;;;0.70;0.60;;;;;;;;;;5062781;28;20427;-78
2021/07/31 04:24:22;;;;;;;0.70;0.60;;;;;;;;;;5075831;28;20498;-78
2021/07/31 04:26:48;;;;;;;0.80;0.70;;;;;;;;;;5062862;28;20436;-79
2021/07/31 04:29:14;;;;;;;0.60;0.50;;;;;;;;;;5060611;28;20777;-78
2021/07/31 04:31:40;;;;;;;1.07;1.07;;;;;;;;;;5051640;28;20411;-77
2021/07/31 04:34:06;;;;;;;0.67;0.60;;;;;;;;;;5069295;28;21029;-77
2021/07/31 04:36:33;;;;;;;0.80;0.80;;;;;;;;;;5064038;28;20441;-77
2021/07/31 04:38:59;;;;;;;0.80;0.70;;;;;;;;;;5056403;28;20469;-78
2021/07/31 04:41:25;;;;;;;0.80;0.80;;;;;;;;;;5067996;28;20518;-78
2021/07/31 04:43:51;;;;;;;0.60;0.60;;;;;;;;;;5068754;28;20461;-77
2021/07/31 04:46:17;;;;;;;0.80;0.63;;;;;;;;;;5061334;28;20562;-78
2021/07/31 04:48:43;;;;;;;0.70;0.60;;;;;;;;;;5073697;28;20400;-77
2021/07/31 04:51:09;;;;;;;1.00;1.00;;;;;;;;;;5074868;28;20952;-77
2021/07/31 04:53:36;;;;;;;0.60;0.60;;;;;;;;;;5050052;28;20942;-77
2021/07/31 04:56:02;;;;;;;0.60;0.50;;;;;;;;;;5072907;28;20477;-76
2021/07/31 04:58:28;;;;;;;0.70;0.63;;;;;;;;;;5068766;28;20405;-77
2021/07/31 05:01:00;;;;;;;0.70;0.60;;;;;;;;;;5052376;28;20396;-77
2021/07/31 05:03:26;;;;;;;1.57;0.70;;;;;;;;;;5055180;28;20466;-77
2021/07/31 05:05:52;;;;;;;0.70;0.70;;;;;;;;;;5049859;28;20552;-77
2021/07/31 05:08:19;;;;;;;0.70;0.67;;;;;;;;;;5067688;28;20870;-77
2021/07/31 05:10:46;;;;;;;0.70;0.60;;;;;;;;;;5070264;28;20922;-77
2021/07/31 05:13:12;;;;;;;1.47;1.37;;;;;;;;;;5056050;28;20842;-77
2021/07/31 05:15:39;;;;;;;0.70;0.60;;;;;;;;;;5070270;28;20450;-77
2021/07/31 05:18:05;;;;;;;0.70;0.70;;;;;;;;;;5060834;28;20908;-78
2021/07/31 05:20:31;;;;;;;0.80;0.70;;;;;;;;;;5069742;28;20405;-77
2021/07/31 05:22:58;;;;;;;0.70;0.63;;;;;;;;;;5074888;28;20918;-77
2021/07/31 05:25:24;;;;;;;1.10;0.70;;;;;;;;;;5056960;28;20459;-77
2021/07/31 05:27:49;;;;;;;0.67;0.60;;;;;;;;;;5076059;28;20860;-77
2021/07/31 05:30:16;;;;;;;0.60;0.60;;;;;;;;;;5074749;28;20385;-77
2021/07/31 05:32:41;;;;;;;0.60;0.50;;;;;;;;;;5073135;28;20412;-77
2021/07/31 05:35:08;;;;;;;0.60;0.60;;;;;;;;;;5073357;28;20909;-77
2021/07/31 05:37:34;;;;;;;0.90;0.90;;;;;;;;;;5053970;28;20398;-77
2021/07/31 05:40:00;;;;;;;0.70;0.67;;;;;;;;;;5053693;28;20861;-76
2021/07/31 05:42:27;;;;;;;1.00;1.00;;;;;;;;;;5053642;28;20949;-77
2021/07/31 05:47:23;;;;;;;0.90;0.90;;;;;;;;;;5049072;28;20473;-82
2021/07/31 05:49:49;;;;;;;0.70;0.60;;;;;;;;;;5063601;28;20424;-83
2021/07/31 05:52:15;;;;;;;0.70;0.60;;;;;;;;;;5047808;28;20478;-82
2021/07/31 05:54:41;;;;;;;0.70;0.70;;;;;;;;;;5040505;28;20393;-82
2021/07/31 05:57:07;;;;;;;0.70;0.70;;;;;;;;;;5045104;28;20510;-82
2021/07/31 05:59:33;;;;;;;0.60;0.60;;;;;;;;;;5074919;28;20424;-82
2021/07/31 06:01:59;;;;;;;0.60;0.60;;;;;;;;;;5059208;28;20414;-83
2021/07/31 06:04:25;;;;;;;2.37;1.00;;;;;;;;;;5059411;28;20445;-83
2021/07/31 06:06:51;;;;;;;0.60;0.50;;;;;;;;;;5057523;28;20423;-84
2021/07/31 06:09:17;;;;;;;0.77;0.77;;;;;;;;;;5057682;28;20435;-84
2021/07/31 06:11:43;;;;;;;0.60;0.50;;;;;;;;;;5057599;28;20466;-83
2021/07/31 06:14:09;;;;;;;0.60;0.60;;;;;;;;;;5059410;28;20439;-83
2021/07/31 06:16:35;;;;;;;0.67;0.63;;;;;;;;;;5056830;28;20411;-81
2021/07/31 06:19:01;;;;;;;0.60;0.60;;;;;;;;;;5040668;28;20412;-83
2021/07/31 06:21:27;;;;;;;0.60;0.60;;;;;;;;;;5047878;28;20415;-83
2021/07/31 06:23:53;;;;;;;1.27;1.17;;;;;;;;;;5056910;28;20400;-83
2021/07/31 06:26:19;;;;;;;0.70;0.70;;;;;;;;;;5051798;28;20461;-83
2021/07/31 06:28:45;;;;;;;0.60;0.60;;;;;;;;;;5040907;28;20416;-83
2021/07/31 06:31:11;;;;;;;0.60;0.50;;;;;;;;;;5043435;28;20780;-83
2021/07/31 06:33:37;;;;;;;0.60;0.50;;;;;;;;;;5060518;28;20470;-83
2021/07/31 06:36:03;;;;;;;0.67;0.60;;;;;;;;;;5059778;28;20444;-83
2021/07/31 06:38:29;;;;;;;0.70;0.70;;;;;;;;;;5050762;28;20411;-82
2021/07/31 06:40:55;;;;;;;0.60;0.60;;;;;;;;;;5048075;28;20409;-81
2021/07/31 06:43:21;;;;;;;0.70;0.60;;;;;;;;;;5039869;28;20802;-79
2021/07/31 06:45:47;;;;;;;0.87;0.70;;;;;;;;;;5036857;28;21199;-80
2021/07/31 06:48:12;;;;;;;0.70;0.70;;;;;;;;;;5055592;28;20444;-83
2021/07/31 06:50:38;;;;;;;0.70;0.70;;;;;;;;;;5060128;28;20383;-81
2021/07/31 06:53:04;;;;;;;0.70;0.70;;;;;;;;;;5051727;28;20514;-80
2021/07/31 06:55:30;;;;;;;0.87;0.67;;;;;;;;;;5052703;28;20440;-80
2021/07/31 06:57:56;;;;;;;0.70;0.60;;;;;;;;;;5052712;28;20473;-81
2021/07/31 07:00:22;;;;;;;0.87;0.70;;;;;;;;;;5039719;28;20479;-80
2021/07/31 07:02:48;;;;;;;0.87;0.63;;;;;;;;;;5034353;28;20406;-80
2021/07/31 07:05:14;;;;;;;0.70;0.60;;;;;;;;;;5033078;28;20442;-80
2021/07/31 07:07:40;;;;;;;4.30;1.73;;;;;;;;;;5037747;28;20438;-81
2021/07/31 07:10:06;;;;;;;0.70;0.67;;;;;;;;;;5038355;28;20755;-80
2021/07/31 07:12:32;;;;;;;0.70;0.60;;;;;;;;;;5052308;28;20815;-80
2021/07/31 07:14:58;;;;;;;0.60;0.53;;;;;;;;;;5052533;28;20431;-80
2021/07/31 07:17:24;;;;;;;0.70;0.70;;;;;;;;;;5051703;28;20793;-80
2021/07/31 07:19:50;;;;;;;0.70;0.70;;;;;;;;;;5052356;28;20834;-81
2021/07/31 07:22:16;;;;;;;0.70;0.60;;;;;;;;;;5052538;28;20412;-81
2021/07/31 07:24:42;;;;;;;0.80;0.70;;;;;;;;;;5052559;28;20438;-79
2021/07/31 07:27:08;;;;;;;0.70;0.60;;;;;;;;;;5050230;28;20424;-79
2021/07/31 07:29:34;;;;;;;0.60;0.50;;;;;;;;;;5037623;28;20507;-81
2021/07/31 07:32:00;;;;;;;0.87;0.70;;;;;;;;;;5052278;28;20394;-80
2021/07/31 07:34:26;;;;;;;0.70;0.60;;;;;;;;;;5050056;28;20391;-81
2021/07/31 07:36:52;;;;;;;0.60;0.60;;;;;;;;;;5035348;28;20481;-79
2021/07/31 07:39:17;;;;;;;0.60;0.50;;;;;;;;;;5048849;28;20467;-81
2021/07/31 07:41:43;;;;;;;0.70;0.70;;;;;;;;;;5045823;28;20425;-80
2021/07/31 07:44:09;;;;;;;0.70;0.70;;;;;;;;;;5032568;28;20413;-81
2021/07/31 07:46:35;;;;;;;0.60;0.50;;;;;;;;;;5032460;28;20423;-80
2021/07/31 07:49:01;;;;;;;0.60;0.60;;;;;;;;;;5032359;28;20419;-82
2021/07/31 07:51:27;;;;;;;1.53;0.70;;;;;;;;;;5046014;28;20437;-79
2021/07/31 07:53:54;;;;;;;0.60;0.60;;;;;;;;;;5051742;28;20439;-81
2021/07/31 07:56:20;;;;;;;0.70;0.67;;;;;;;;;;5051688;28;20439;-81
2021/07/31 07:58:45;;;;;;;0.60;0.50;;;;;;;;;;5052689;28;20514;-80
2021/07/31 08:01:11;;;;;;;0.80;0.80;;;;;;;;;;5050846;28;20500;-80
2021/07/31 08:03:37;;;;;;;0.80;0.60;;;;;;;;;;5052663;28;20413;-81
2021/07/31 08:06:03;;;;;;;0.70;0.60;;;;;;;;;;5051896;28;20483;-81
2021/07/31 08:08:29;;;;;;;0.60;0.60;;;;;;;;;;5046799;28;20504;-80
2021/07/31 08:10:55;;;;;;;0.60;0.60;;;;;;;;;;5051725;28;20771;-81
2021/07/31 08:13:21;;;;;;;0.67;0.67;;;;;;;;;;5067647;28;20495;-80
2021/07/31 08:15:47;;;;;;;0.60;0.50;;;;;;;;;;5052003;28;20433;-79
2021/07/31 08:18:13;;;;;;;0.70;0.67;;;;;;;;;;5052042;28;20380;-81
2021/07/31 08:20:39;;;;;;;0.77;0.77;;;;;;;;;;5043234;28;20936;-80
2021/07/31 08:23:05;;;;;;;0.70;0.70;;;;;;;;;;5051325;28;20800;-79
2021/07/31 08:25:31;;;;;;;0.60;0.50;;;;;;;;;;5047777;28;20469;-80
2021/07/31 08:27:57;;;;;;;0.60;0.50;;;;;;;;;;5037783;28;20513;-80
2021/07/31 08:30:23;;;;;;;0.60;0.50;;;;;;;;;;5051260;28;20916;-81
2021/07/31 08:32:49;;;;;;;0.60;0.50;;;;;;;;;;5055697;28;20755;-80
2021/07/31 08:35:15;;;;;;;0.97;0.70;;;;;;;;;;5055232;28;20563;-81
2021/07/31 08:37:41;;;;;;;0.60;0.50;;;;;;;;;;5057502;28;20448;-81
2021/07/31 08:40:08;;;;;;;0.60;0.60;;;;;;;;;;5043643;28;20415;-81
2021/07/31 08:42:35;;;;;;;0.60;0.50;;;;;;;;;;5044439;28;20433;-81
2021/07/31 08:45:02;;;;;;;0.60;0.50;;;;;;;;;;5054870;28;20543;-80
2021/07/31 08:47:29;;;;;;;0.90;0.90;;;;;;;;;;5054891;28;20421;-79
2021/07/31 08:49:55;;;;;;;0.60;0.57;;;;;;;;;;5068155;28;20433;-81
2021/07/31 08:52:23;;;;;;;0.87;0.87;;;;;;;;;;5045369;28;20517;-81
2021/07/31 08:54:49;;;;;;;0.60;0.50;;;;;;;;;;5044325;28;20431;-79
2021/07/31 08:57:15;;;;;;;0.70;0.70;;;;;;;;;;5047634;28;20449;-80
2021/07/31 08:59:40;;;;;;;1.37;0.73;;;;;;;;;;5051951;28;20434;-81
2021/07/31 09:02:08;;;;;;;0.60;0.50;;;;;;;;;;5054563;28;20420;-80
2021/07/31 09:04:34;;;;;;;0.60;0.50;;;;;;;;;;5051317;28;20470;-80
2021/07/31 09:07:11;;;;;;;0.60;0.60;;;;;;;;;;5040516;28;20530;-80
2021/07/31 09:09:37;;;;;;;0.80;0.77;;;;;;;;;;5046304;28;20500;-82
2021/07/31 09:12:05;;;;;;;1.03;0.70;;;;;;;;;;5052722;28;20622;-80
2021/07/31 09:14:31;;;;;;;1.53;0.60;;;;;;;;;;5054191;28;20426;-80
2021/07/31 09:16:58;;;;;;;0.60;0.50;;;;;;;;;;5050804;28;21033;-81
2021/07/31 09:19:28;;;;;;;0.60;0.50;;;;;;;;;;5038984;28;20421;-79
2021/07/31 09:22:08;;;;;;;0.80;0.73;;;;;;;;;;5043625;28;20423;-82
2021/07/31 09:24:36;;;;;;;0.70;0.60;;;;;;;;;;5061829;28;20472;-83
2021/07/31 09:27:23;;;;;;;0.60;0.60;;;;;;;;;;5083916;28;20432;-82
2021/07/31 09:29:58;;;;;;;0.60;0.50;;;;;;;;;;5068881;28;20803;-82
2021/07/31 09:32:35;;;;;;;0.60;0.50;;;;;;;;;;5061893;28;20462;-83
2021/07/31 09:35:01;;;;;;;0.60;0.53;;;;;;;;;;5074676;28;20433;-81
2021/07/31 09:37:28;;;;;;;0.60;0.50;;;;;;;;;;5061429;28;20445;-79
2021/07/31 09:40:03;;;;;;;0.60;0.50;;;;;;;;;;5069970;28;20405;-81
2021/07/31 09:42:29;;;;;;;0.70;0.60;;;;;;;;;;5079570;28;20424;-82
2021/07/31 09:44:56;;;;;;;0.70;0.70;;;;;;;;;;5079581;28;20539;-80
2021/07/31 09:47:22;;;;;;;0.70;0.60;;;;;;;;;;5063738;28;20909;-81
2021/07/31 09:49:50;;;;;;;0.70;0.60;;;;;;;;;;5080575;28;20416;-82
2021/07/31 09:52:17;;;;;;;1.00;0.90;;;;;;;;;;5077964;28;20418;-80
2021/07/31 09:54:43;;;;;;;0.60;0.50;;;;;;;;;;5060961;28;20425;-82
2021/07/31 09:57:12;;;;;;;0.60;0.60;;;;;;;;;;5064265;28;20517;-82
2021/07/31 09:59:43;;;;;;;0.80;0.80;;;;;;;;;;5065231;28;20405;-82
2021/07/31 10:02:13;;;;;;;0.60;0.60;;;;;;;;;;5065649;28;20395;-81
2021/07/31 10:04:39;;;;;;;0.60;0.60;;;;;;;;;;5063944;28;20476;-81
2021/07/31 10:07:06;;;;;;;0.60;0.60;;;;;;;;;;5051138;28;20460;-82
2021/07/31 10:09:33;;;;;;;0.60;0.50;;;;;;;;;;5061639;28;20441;-81
2021/07/31 10:11:59;;;;;;;0.90;0.70;;;;;;;;;;5063801;28;20436;-81
2021/07/31 10:14:25;;;;;;;1.43;0.50;;;;;;;;;;5064639;28;20428;-82
2021/07/31 10:16:52;;;;;;;0.60;0.50;;;;;;;;;;5065936;28;20474;-81
2021/07/31 10:19:18;;;;;;;0.70;0.70;;;;;;;;;;5066230;28;20411;-82
2021/07/31 10:21:48;;;;;;;0.60;0.50;;;;;;;;;;5066474;28;20408;-81
2021/07/31 10:24:15;;;;;;;1.13;0.67;;;;;;;;;;5066528;28;20425;-82
2021/07/31 10:26:41;;;;;;;0.70;0.60;;;;;;;;;;5065623;28;20541;-79
2021/07/31 10:29:25;;;;;;;0.90;0.63;;;;;;;;;;5064698;28;20426;-80
2021/07/31 10:31:51;;;;;;;0.70;0.60;;;;;;;;;;5066125;28;20529;-80
2021/07/31 10:34:36;;;;;;;0.60;0.50;;;;;;;;;;5064271;28;20499;-80
2021/07/31 10:37:22;;;;;;;0.60;0.60;;;;;;;;;;5048618;28;20458;-81
2021/07/31 10:39:48;;;;;;;0.70;0.60;;;;;;;;;;5055138;28;20499;-80
2021/07/31 10:42:14;;;;;;;0.70;0.70;;;;;;;;;;5065412;28;20417;-81
2021/07/31 10:45:00;;;;;;;1.20;0.60;;;;;;;;;;5058162;28;20460;-81
2021/07/31 10:47:26;;;;;;;0.70;0.50;;;;;;;;;;5043696;28;20423;-79
2021/07/31 10:49:52;;;;;;;1.07;0.63;;;;;;;;;;5045101;28;20462;-79
2021/07/31 10:52:50;;;;;;;0.70;0.70;;;;;;;;;;5042698;28;20446;-81
2021/07/31 10:55:17;;;;;;;1.30;0.80;;;;;;;;;;5035707;28;20447;-78
2021/07/31 10:58:02;;;;;;;0.63;0.57;;;;;;;;;;5060214;28;20414;-81
2021/07/31 11:00:28;;;;;;;0.70;0.60;;;;;;;;;;5043760;28;20415;-81
2021/07/31 11:02:55;;;;;;;1.40;1.30;;;;;;;;;;5056943;28;20437;-81
2021/07/31 11:05:21;;;;;;;0.60;0.50;;;;;;;;;;5060098;28;20985;-80
2021/07/31 11:08:13;;;;;;;0.60;0.50;;;;;;;;;;5059994;28;20434;-79
2021/07/31 11:10:43;;;;;;;0.90;0.90;;;;;;;;;;5041083;28;20425;-81
2021/07/31 11:13:13;;;;;;;0.60;0.50;;;;;;;;;;5043813;28;20900;-81
2021/07/31 11:16:09;;;;;;;0.60;0.50;;;;;;;;;;5055963;28;20435;-81
2021/07/31 11:18:44;;;;;;;0.70;0.70;;;;;;;;;;5042269;28;20427;-81
2021/07/31 11:21:13;;;;;;;0.90;0.60;;;;;;;;;;5042435;28;20412;-81
2021/07/31 11:23:40;;;;;;;0.60;0.50;;;;;;;;;;5059656;28;20437;-82
2021/07/31 11:26:06;;;;;;;0.60;0.60;;;;;;;;;;5043934;28;20517;-79
2021/07/31 11:28:33;;;;;;;0.60;0.60;;;;;;;;;;5043094;28;20419;-81
2021/07/31 11:31:00;;;;;;;0.70;0.63;;;;;;;;;;5049203;28;20483;-80
2021/07/31 11:33:28;;;;;;;0.60;0.60;;;;;;;;;;5062867;28;20830;-80
2021/07/31 11:35:54;;;;;;;0.60;0.50;;;;;;;;;;5063496;28;20510;-81
2021/07/31 11:38:27;;;;;;;0.60;0.50;;;;;;;;;;5067769;28;20466;-81
2021/07/31 11:40:57;;;;;;;0.60;0.50;;;;;;;;;;5078949;28;20437;-81
2021/07/31 11:43:23;;;;;;;0.60;0.60;;;;;;;;;;5064103;28;20792;-81
2021/07/31 11:45:49;;;;;;;0.67;0.57;;;;;;;;;;5060220;28;20472;-82
2021/07/31 11:48:15;;;;;;;1.37;1.10;;;;;;;;;;5054936;28;20408;-82
2021/07/31 11:51:00;;;;;;;0.60;0.50;;;;;;;;;;5053025;28;20438;-81
2021/07/31 11:53:26;;;;;;;0.70;0.60;;;;;;;;;;5054402;28;20410;-81
2021/07/31 11:55:52;;;;;;;0.70;0.60;;;;;;;;;;5046328;28;20511;-80
2021/07/31 11:58:18;;;;;;;0.70;0.70;;;;;;;;;;5052856;28;20914;-82
2021/07/31 12:00:44;;;;;;;0.70;0.60;;;;;;;;;;5056777;28;20422;-82
2021/07/31 12:03:29;;;;;;;0.60;0.50;;;;;;;;;;5048004;28;20440;-82
2021/07/31 12:05:55;;;;;;;0.60;0.60;;;;;;;;;;5040521;28;20484;-82
2021/07/31 12:08:21;;;;;;;0.90;0.90;;;;;;;;;;5066853;28;20443;-79
2021/07/31 12:10:47;;;;;;;0.60;0.60;;;;;;;;;;5049747;28;20438;-81
2021/07/31 12:13:13;;;;;;;0.70;0.70;;;;;;;;;;5046472;28;20417;-82
2021/07/31 12:15:42;;;;;;;0.60;0.50;;;;;;;;;;5041180;28;20439;-82
2021/07/31 12:18:08;;;;;;;0.70;0.63;;;;;;;;;;5040400;28;20440;-82
2021/07/31 12:20:35;;;;;;;0.70;0.50;;;;;;;;;;5059889;28;20426;-83
2021/07/31 12:23:02;;;;;;;0.60;0.50;;;;;;;;;;5059217;28;20823;-79
2021/07/31 12:25:28;;;;;;;0.60;0.50;;;;;;;;;;5057402;28;20546;-82
2021/07/31 12:28:10;;;;;;;0.60;0.53;;;;;;;;;;5059800;28;20415;-83
2021/07/31 12:30:39;;;;;;;0.60;0.50;;;;;;;;;;5059972;28;20407;-81
2021/07/31 12:33:05;;;;;;;0.60;0.50;;;;;;;;;;5059761;28;20487;-81
2021/07/31 12:35:32;;;;;;;0.60;0.50;;;;;;;;;;5057862;28;20453;-80
2021/07/31 12:37:59;;;;;;;0.80;0.63;;;;;;;;;;5060154;28;21007;-82
2021/07/31 12:40:25;;;;;;;0.60;0.50;;;;;;;;;;5051304;28;20420;-81
2021/07/31 12:42:54;;;;;;;0.70;0.60;;;;;;;;;;5075603;28;20416;-81
2021/07/31 12:45:20;;;;;;;0.60;0.57;;;;;;;;;;5058449;28;20525;-81
2021/07/31 12:47:47;;;;;;;0.60;0.50;;;;;;;;;;5074337;28;20430;-79
2021/07/31 12:50:13;;;;;;;1.10;0.60;;;;;;;;;;5075281;28;20426;-80
2021/07/31 12:52:39;;;;;;;0.60;0.50;;;;;;;;;;5058372;28;20512;-80
2021/07/31 12:55:05;;;;;;;0.70;0.60;;;;;;;;;;5057374;28;20428;-80
2021/07/31 12:57:36;;;;;;;0.60;0.60;;;;;;;;;;5039414;28;20495;-82
2021/07/31 13:00:02;;;;;;;0.77;0.60;;;;;;;;;;5053404;28;20440;-81
2021/07/31 13:02:28;;;;;;;1.83;0.80;;;;;;;;;;5038453;28;20418;-83
2021/07/31 13:04:55;;;;;;;0.60;0.50;;;;;;;;;;5048958;28;20545;-82
2021/07/31 13:07:21;;;;;;;0.60;0.50;;;;;;;;;;5073659;28;20949;-82
2021/07/31 13:09:47;;;;;;;0.73;0.70;;;;;;;;;;5049146;28;20492;-80
2021/07/31 13:12:13;;;;;;;0.80;0.80;;;;;;;;;;5044952;28;20408;-81
2021/07/31 13:14:39;;;;;;;0.60;0.60;;;;;;;;;;5058392;28;20956;-80
2021/07/31 13:17:05;;;;;;;0.67;0.50;;;;;;;;;;5057097;28;20440;-81
2021/07/31 13:19:31;;;;;;;0.60;0.50;;;;;;;;;;5047085;28;20439;-81
2021/07/31 13:21:57;;;;;;;0.60;0.50;;;;;;;;;;5043568;28;20805;-80
2021/07/31 13:24:23;;;;;;;0.60;0.50;;;;;;;;;;5043943;28;20442;-80
2021/07/31 13:26:49;;;;;;;0.60;0.50;;;;;;;;;;5057318;28;20452;-81
2021/07/31 13:29:17;;;;;;;0.60;0.50;;;;;;;;;;5057238;28;20419;-81
2021/07/31 13:31:46;;;;;;;0.60;0.50;;;;;;;;;;5056788;28;20423;-82
2021/07/31 13:34:12;;;;;;;0.67;0.60;;;;;;;;;;5058293;28;20419;-81
2021/07/31 13:36:38;;;;;;;0.60;0.50;;;;;;;;;;5057743;28;20518;-82
2021/07/31 13:39:04;;;;;;;0.70;0.67;;;;;;;;;;5055186;28;20464;-81
2021/07/31 13:41:30;;;;;;;0.60;0.50;;;;;;;;;;5050760;28;20412;-81
2021/07/31 13:44:00;;;;;;;0.60;0.60;;;;;;;;;;5057287;28;20457;-81
2021/07/31 13:46:26;;;;;;;0.80;0.70;;;;;;;;;;5058280;28;20468;-82
2021/07/31 13:48:52;;;;;;;0.90;0.90;;;;;;;;;;5072347;28;20546;-80
2021/07/31 13:51:17;;;;;;;0.60;0.50;;;;;;;;;;5055755;28;20454;-81
2021/07/31 13:53:43;;;;;;;0.60;0.50;;;;;;;;;;5054371;28;20416;-82
2021/07/31 13:56:09;;;;;;;0.70;0.63;;;;;;;;;;5038975;28;20436;-83
2021/07/31 13:58:37;;;;;;;0.70;0.70;;;;;;;;;;5038888;28;20403;-82
2021/07/31 14:01:03;;;;;;;0.70;0.70;;;;;;;;;;5052512;28;20974;-81
2021/07/31 14:03:29;;;;;;;0.70;0.60;;;;;;;;;;5056404;28;20424;-82
2021/07/31 14:05:55;;;;;;;0.70;0.53;;;;;;;;;;5052426;28;20471;-82
2021/07/31 14:08:21;;;;;;;0.60;0.60;;;;;;;;;;5057424;28;21053;-81
2021/07/31 14:10:47;;;;;;;0.60;0.50;;;;;;;;;;5064615;28;20474;-80
2021/07/31 14:13:13;;;;;;;0.60;0.50;;;;;;;;;;5059040;28;20432;-82
2021/07/31 14:15:43;;;;;;;0.80;0.50;;;;;;;;;;5054901;28;20435;-82
2021/07/31 14:18:12;;;;;;;0.70;0.60;;;;;;;;;;5046183;28;20433;-83
2021/07/31 14:20:41;;;;;;;0.60;0.50;;;;;;;;;;5047045;28;20423;-82
2021/07/31 14:23:10;;;;;;;0.80;0.70;;;;;;;;;;5051557;28;20503;-82
2021/07/31 14:25:37;;;;;;;0.60;0.50;;;;;;;;;;5057966;28;20475;-82
2021/07/31 14:28:03;;;;;;;1.13;0.80;;;;;;;;;;5058650;28;20424;-82
2021/07/31 14:30:29;;;;;;;0.60;0.50;;;;;;;;;;5057463;28;20782;-83
2021/07/31 14:32:54;;;;;;;0.60;0.50;;;;;;;;;;5059104;28;20514;-81
2021/07/31 14:35:20;;;;;;;0.60;0.50;;;;;;;;;;5058588;28;20539;-82
2021/07/31 14:37:46;;;;;;;0.60;0.50;;;;;;;;;;5057371;28;20431;-81
2021/07/31 14:40:13;;;;;;;0.70;0.60;;;;;;;;;;5043461;28;20478;-81
2021/07/31 14:42:38;;;;;;;1.73;0.70;;;;;;;;;;5053286;28;20450;-82
2021/07/31 14:45:06;;;;;;;0.60;0.50;;;;;;;;;;5057212;28;20547;-82